sensor_id;sensor_type;location;lat;lon;timestamp;temperature;humidity
3310;DHT22;1667;53.238;10.394;2023-03-01T00:01:50;3.90;99.90
3310;DHT22;1667;53.238;10.394;2023-03-01T00:06:49;4.30;99.90
3310;DHT22;1667;53.238;10.394;2023-03-01T00:11:48;3.90;99.90
3310;DHT22;1667;53.238;10.394;2023-03-01T00:16:48;3.90;99.90
3310;DHT22;1667;53.238;10.394;2023-03-01T00:21:47;3.80;99.90
3310;DHT22;1667;53.238;10.394;2023-03-01T00:26:46;3.80;99.90
3310;DHT22;1667;53.238;10.394;2023-03-01T00:31:44;3.70;99.90
3310;DHT22;1667;53.238;10.394;2023-03-01T00:36:44;3.70;99.90
3310;DHT22;1667;53.238;10.394;2023-03-01T00:41:43;3.80;99.90
3310;DHT22;1667;53.238;10.394;2023-03-01T00:46:41;3.70;99.90
3310;DHT22;1667;53.238;10.394;2023-03-01T00:51:40;3.60;99.90
3310;DHT22;1667;53.238;10.394;2023-03-01T00:56:40;3.60;99.90
3310;DHT22;1667;53.238;10.394;2023-03-01T01:01:39;3.50;99.90
3310;DHT22;1667;53.238;10.394;2023-03-01T01:06:40;3.50;99.90
3310;DHT22;1667;53.238;10.394;2023-03-01T01:11:41;3.50;99.90
3310;DHT22;1667;53.238;10.394;2023-03-01T01:16:40;3.50;99.90
3310;DHT22;1667;53.238;10.394;2023-03-01T01:21:38;3.40;99.90
3310;DHT22;1667;53.238;10.394;2023-03-01T01:26:38;3.40;99.90
3310;DHT22;1667;53.238;10.394;2023-03-01T01:31:39;3.40;99.90
3310;DHT22;1667;53.238;10.394;2023-03-01T01:36:38;3.40;99.90
3310;DHT22;1667;53.238;10.394;2023-03-01T01:41:37;3.30;99.90
3310;DHT22;1667;53.238;10.394;2023-03-01T01:46:39;3.40;99.90
3310;DHT22;1667;53.238;10.394;2023-03-01T01:51:41;3.30;99.90
3310;DHT22;1667;53.238;10.394;2023-03-01T01:56:44;3.30;99.90
3310;DHT22;1667;53.238;10.394;2023-03-01T02:01:46;3.20;99.90
3310;DHT22;1667;53.238;10.394;2023-03-01T02:06:49;3.20;99.90
3310;DHT22;1667;53.238;10.394;2023-03-01T02:11:51;3.10;99.90
3310;DHT22;1667;53.238;10.394;2023-03-01T02:16:50;3.10;99.90
3310;DHT22;1667;53.238;10.394;2023-03-01T02:21:56;3.10;99.90
3310;DHT22;1667;53.238;10.394;2023-03-01T02:26:59;3.10;99.90
3310;DHT22;1667;53.238;10.394;2023-03-01T02:32:02;3.00;99.90
3310;DHT22;1667;53.238;10.394;2023-03-01T02:37:02;3.00;99.90
3310;DHT22;1667;53.238;10.394;2023-03-01T02:42:02;3.10;99.90
3310;DHT22;1667;53.238;10.394;2023-03-01T02:47:04;3.00;99.90
3310;DHT22;1667;53.238;10.394;2023-03-01T02:52:39;3.00;99.90
3310;DHT22;1667;53.238;10.394;2023-03-01T02:57:40;3.00;99.90
3310;DHT22;1667;53.238;10.394;2023-03-01T03:02:41;3.00;99.90
3310;DHT22;1667;53.238;10.394;2023-03-01T03:07:52;3.00;99.90
3310;DHT22;1667;53.238;10.394;2023-03-01T03:12:51;2.90;99.90
3310;DHT22;1667;53.238;10.394;2023-03-01T03:17:53;2.90;99.90
3310;DHT22;1667;53.238;10.394;2023-03-01T03:22:53;2.80;99.90
3310;DHT22;1667;53.238;10.394;2023-03-01T03:27:53;2.80;99.90
3310;DHT22;1667;53.238;10.394;2023-03-01T03:32:55;3.10;99.90
3310;DHT22;1667;53.238;10.394;2023-03-01T03:37:54;2.80;99.90
3310;DHT22;1667;53.238;10.394;2023-03-01T03:43:05;2.70;99.90
3310;DHT22;1667;53.238;10.394;2023-03-01T03:48:07;2.70;99.90
3310;DHT22;1667;53.238;10.394;2023-03-01T03:53:07;3.00;99.90
3310;DHT22;1667;53.238;10.394;2023-03-01T03:58:07;2.70;99.90
3310;DHT22;1667;53.238;10.394;2023-03-01T04:03:09;2.90;99.90
3310;DHT22;1667;53.238;10.394;2023-03-01T04:08:08;2.60;99.90
3310;DHT22;1667;53.238;10.394;2023-03-01T04:13:09;2.60;99.90
3310;DHT22;1667;53.238;10.394;2023-03-01T04:18:12;2.60;99.90
3310;DHT22;1667;53.238;10.394;2023-03-01T04:23:12;2.80;99.90
3310;DHT22;1667;53.238;10.394;2023-03-01T04:28:13;2.50;99.90
3310;DHT22;1667;53.238;10.394;2023-03-01T04:33:13;2.50;99.90
3310;DHT22;1667;53.238;10.394;2023-03-01T04:38:11;2.50;99.90
3310;DHT22;1667;53.238;10.394;2023-03-01T04:43:11;2.50;99.90
3310;DHT22;1667;53.238;10.394;2023-03-01T04:48:12;2.50;99.90
3310;DHT22;1667;53.238;10.394;2023-03-01T04:53:11;2.70;99.90
3310;DHT22;1667;53.238;10.394;2023-03-01T04:58:09;2.50;99.90
3310;DHT22;1667;53.238;10.394;2023-03-01T05:03:08;2.70;99.90
3310;DHT22;1667;53.238;10.394;2023-03-01T05:08:08;2.40;99.90
3310;DHT22;1667;53.238;10.394;2023-03-01T05:13:14;2.50;99.90
3310;DHT22;1667;53.238;10.394;2023-03-01T05:18:17;2.60;99.90
3310;DHT22;1667;53.238;10.394;2023-03-01T05:23:17;2.40;99.90
3310;DHT22;1667;53.238;10.394;2023-03-01T05:28:16;2.40;99.90
3310;DHT22;1667;53.238;10.394;2023-03-01T05:33:15;2.30;99.90
3310;DHT22;1667;53.238;10.394;2023-03-01T05:38:17;2.30;99.90
3310;DHT22;1667;53.238;10.394;2023-03-01T05:43:16;2.30;99.90
3310;DHT22;1667;53.238;10.394;2023-03-01T05:48:15;2.30;99.90
3310;DHT22;1667;53.238;10.394;2023-03-01T05:53:15;2.30;99.90
3310;DHT22;1667;53.238;10.394;2023-03-01T05:58:17;2.30;99.90
3310;DHT22;1667;53.238;10.394;2023-03-01T06:03:17;2.30;99.90
3310;DHT22;1667;53.238;10.394;2023-03-01T06:08:16;2.30;99.90
3310;DHT22;1667;53.238;10.394;2023-03-01T06:13:15;2.30;99.90
3310;DHT22;1667;53.238;10.394;2023-03-01T06:18:14;2.40;99.90
3310;DHT22;1667;53.238;10.394;2023-03-01T06:23:12;2.40;99.90
3310;DHT22;1667;53.238;10.394;2023-03-01T06:28:11;2.50;99.90
3310;DHT22;1667;53.238;10.394;2023-03-01T06:33:10;2.50;99.90
3310;DHT22;1667;53.238;10.394;2023-03-01T06:38:09;2.50;99.90
3310;DHT22;1667;53.238;10.394;2023-03-01T06:43:08;2.60;99.90
3310;DHT22;1667;53.238;10.394;2023-03-01T06:48:07;2.90;99.90
3310;DHT22;1667;53.238;10.394;2023-03-01T06:53:07;2.70;99.90
3310;DHT22;1667;53.238;10.394;2023-03-01T06:58:05;2.70;99.90
3310;DHT22;1667;53.238;10.394;2023-03-01T07:03:04;2.80;99.90
3310;DHT22;1667;53.238;10.394;2023-03-01T07:08:02;2.80;99.90
3310;DHT22;1667;53.238;10.394;2023-03-01T07:13:02;2.90;99.90
3310;DHT22;1667;53.238;10.394;2023-03-01T07:18:03;3.00;99.90
3310;DHT22;1667;53.238;10.394;2023-03-01T07:23:02;3.10;99.90
3310;DHT22;1667;53.238;10.394;2023-03-01T07:28:02;3.10;99.90
3310;DHT22;1667;53.238;10.394;2023-03-01T07:33:00;3.20;99.90
3310;DHT22;1667;53.238;10.394;2023-03-01T07:37:59;3.30;99.90
3310;DHT22;1667;53.238;10.394;2023-03-01T07:42:58;3.40;99.90
3310;DHT22;1667;53.238;10.394;2023-03-01T07:47:58;3.50;99.90
3310;DHT22;1667;53.238;10.394;2023-03-01T07:52:56;3.80;99.90
3310;DHT22;1667;53.238;10.394;2023-03-01T07:57:54;3.70;99.90
3310;DHT22;1667;53.238;10.394;2023-03-01T08:02:53;4.00;99.90
3310;DHT22;1667;53.238;10.394;2023-03-01T08:07:53;3.80;99.90
3310;DHT22;1667;53.238;10.394;2023-03-01T08:12:52;4.30;99.90
3310;DHT22;1667;53.238;10.394;2023-03-01T08:17:51;4.00;99.90
3310;DHT22;1667;53.238;10.394;2023-03-01T08:22:49;4.10;99.90
3310;DHT22;1667;53.238;10.394;2023-03-01T08:27:49;4.30;99.90
3310;DHT22;1667;53.238;10.394;2023-03-01T08:32:48;4.30;99.90
3310;DHT22;1667;53.238;10.394;2023-03-01T08:37:47;4.40;99.90
3310;DHT22;1667;53.238;10.394;2023-03-01T08:42:45;4.70;99.90
3310;DHT22;1667;53.238;10.394;2023-03-01T08:47:45;5.00;99.90
3310;DHT22;1667;53.238;10.394;2023-03-01T08:52:44;4.80;99.90
3310;DHT22;1667;53.238;10.394;2023-03-01T08:57:43;4.80;99.90
3310;DHT22;1667;53.238;10.394;2023-03-01T09:02:42;4.90;99.90
3310;DHT22;1667;53.238;10.394;2023-03-01T09:07:42;5.00;99.90
3310;DHT22;1667;53.238;10.394;2023-03-01T09:12:40;5.20;99.90
3310;DHT22;1667;53.238;10.394;2023-03-01T09:17:39;5.70;99.90
3310;DHT22;1667;53.238;10.394;2023-03-01T09:22:37;5.90;99.90
3310;DHT22;1667;53.238;10.394;2023-03-01T09:27:37;5.80;99.90
3310;DHT22;1667;53.238;10.394;2023-03-01T09:32:36;5.90;99.90
3310;DHT22;1667;53.238;10.394;2023-03-01T09:37:39;6.10;99.90
3310;DHT22;1667;53.238;10.394;2023-03-01T09:42:48;6.50;99.90
3310;DHT22;1667;53.238;10.394;2023-03-01T09:47:49;6.40;99.90
3310;DHT22;1667;53.238;10.394;2023-03-01T09:52:52;6.90;99.90
3310;DHT22;1667;53.238;10.394;2023-03-01T09:57:56;6.80;99.90
3310;DHT22;1667;53.238;10.394;2023-03-01T10:03:06;6.90;99.90
3310;DHT22;1667;53.238;10.394;2023-03-01T10:08:31;7.20;99.90
3310;DHT22;1667;53.238;10.394;2023-03-01T10:13:42;7.40;99.90
3310;DHT22;1667;53.238;10.394;2023-03-01T10:18:48;7.70;99.90
3310;DHT22;1667;53.238;10.394;2023-03-01T10:23:51;7.50;99.90
3310;DHT22;1667;53.238;10.394;2023-03-01T10:28:59;7.90;99.90
3310;DHT22;1667;53.238;10.394;2023-03-01T10:33:59;7.90;99.90
3310;DHT22;1667;53.238;10.394;2023-03-01T10:38:58;8.30;99.90
3310;DHT22;1667;53.238;10.394;2023-03-01T10:43:59;8.50;99.90
3310;DHT22;1667;53.238;10.394;2023-03-01T10:49:14;8.50;99.90
3310;DHT22;1667;53.238;10.394;2023-03-01T10:54:17;8.60;99.90
3310;DHT22;1667;53.238;10.394;2023-03-01T10:59:26;8.80;99.90
3310;DHT22;1667;53.238;10.394;2023-03-01T11:04:24;9.40;99.90
3310;DHT22;1667;53.238;10.394;2023-03-01T11:09:24;9.70;99.90
3310;DHT22;1667;53.238;10.394;2023-03-01T11:14:26;9.90;99.90
3310;DHT22;1667;53.238;10.394;2023-03-01T11:19:25;10.20;99.90
3310;DHT22;1667;53.238;10.394;2023-03-01T11:24:28;10.30;99.90
3310;DHT22;1667;53.238;10.394;2023-03-01T11:29:32;10.30;99.90
3310;DHT22;1667;53.238;10.394;2023-03-01T11:34:48;10.30;99.90
3310;DHT22;1667;53.238;10.394;2023-03-01T11:39:55;10.30;99.90
3310;DHT22;1667;53.238;10.394;2023-03-01T11:44:59;10.30;99.90
3310;DHT22;1667;53.238;10.394;2023-03-01T11:50:14;10.60;99.90
3310;DHT22;1667;53.238;10.394;2023-03-01T11:55:25;10.80;99.90
3310;DHT22;1667;53.238;10.394;2023-03-01T12:00:43;11.00;99.90
3310;DHT22;1667;53.238;10.394;2023-03-01T12:06:04;11.00;99.90
3310;DHT22;1667;53.238;10.394;2023-03-01T12:11:15;10.90;99.90
3310;DHT22;1667;53.238;10.394;2023-03-01T12:16:31;10.80;99.90
3310;DHT22;1667;53.238;10.394;2023-03-01T12:21:45;10.60;99.90
3310;DHT22;1667;53.238;10.394;2023-03-01T12:26:53;10.60;99.90
3310;DHT22;1667;53.238;10.394;2023-03-01T12:32:24;10.60;99.90
3310;DHT22;1667;53.238;10.394;2023-03-01T12:37:33;10.50;99.90
3310;DHT22;1667;53.238;10.394;2023-03-01T12:42:40;10.50;99.90
3310;DHT22;1667;53.238;10.394;2023-03-01T12:47:57;10.30;99.90
3310;DHT22;1667;53.238;10.394;2023-03-01T12:52:57;10.30;99.90
3310;DHT22;1667;53.238;10.394;2023-03-01T12:58:03;10.10;99.90
3310;DHT22;1667;53.238;10.394;2023-03-01T13:03:13;9.80;99.90
3310;DHT22;1667;53.238;10.394;2023-03-01T13:08:17;10.10;99.90
3310;DHT22;1667;53.238;10.394;2023-03-01T13:13:21;9.90;99.90
3310;DHT22;1667;53.238;10.394;2023-03-01T13:18:32;10.00;99.90
3310;DHT22;1667;53.238;10.394;2023-03-01T13:23:39;10.30;99.90
3310;DHT22;1667;53.238;10.394;2023-03-01T13:28:56;10.10;99.90
3310;DHT22;1667;53.238;10.394;2023-03-01T13:33:59;9.90;99.90
3310;DHT22;1667;53.238;10.394;2023-03-01T13:38:59;9.90;99.90
3310;DHT22;1667;53.238;10.394;2023-03-01T13:43:58;9.70;99.90
3310;DHT22;1667;53.238;10.394;2023-03-01T13:48:58;9.70;99.90
3310;DHT22;1667;53.238;10.394;2023-03-01T13:53:58;9.70;99.90
3310;DHT22;1667;53.238;10.394;2023-03-01T13:59:01;9.70;99.90
3310;DHT22;1667;53.238;10.394;2023-03-01T14:04:01;9.70;99.90
3310;DHT22;1667;53.238;10.394;2023-03-01T14:09:04;9.90;99.90
3310;DHT22;1667;53.238;10.394;2023-03-01T14:14:29;9.80;99.90
3310;DHT22;1667;53.238;10.394;2023-03-01T14:19:31;9.60;99.90
3310;DHT22;1667;53.238;10.394;2023-03-01T14:24:31;9.70;99.90
3310;DHT22;1667;53.238;10.394;2023-03-01T14:29:35;9.80;99.90
3310;DHT22;1667;53.238;10.394;2023-03-01T14:34:35;9.90;99.90
3310;DHT22;1667;53.238;10.394;2023-03-01T14:39:33;10.00;99.90
3310;DHT22;1667;53.238;10.394;2023-03-01T14:44:32;9.60;99.90
3310;DHT22;1667;53.238;10.394;2023-03-01T14:49:36;9.60;99.90
3310;DHT22;1667;53.238;10.394;2023-03-01T14:54:39;9.70;99.90
3310;DHT22;1667;53.238;10.394;2023-03-01T14:59:38;9.80;99.90
3310;DHT22;1667;53.238;10.394;2023-03-01T15:04:41;9.70;99.90
3310;DHT22;1667;53.238;10.394;2023-03-01T15:09:40;9.60;99.90
3310;DHT22;1667;53.238;10.394;2023-03-01T15:14:41;9.60;99.90
3310;DHT22;1667;53.238;10.394;2023-03-01T15:19:55;9.80;99.90
3310;DHT22;1667;53.238;10.394;2023-03-01T15:24:54;9.70;99.90
3310;DHT22;1667;53.238;10.394;2023-03-01T15:29:55;9.70;99.90
3310;DHT22;1667;53.238;10.394;2023-03-01T15:34:58;9.80;99.90
3310;DHT22;1667;53.238;10.394;2023-03-01T15:39:57;9.80;99.90
3310;DHT22;1667;53.238;10.394;2023-03-01T15:45:08;9.90;99.90
3310;DHT22;1667;53.238;10.394;2023-03-01T15:50:17;9.70;99.90
3310;DHT22;1667;53.238;10.394;2023-03-01T15:55:19;9.70;99.90
3310;DHT22;1667;53.238;10.394;2023-03-01T16:00:19;9.70;99.90
3310;DHT22;1667;53.238;10.394;2023-03-01T16:05:21;9.80;99.90
3310;DHT22;1667;53.238;10.394;2023-03-01T16:10:21;9.80;99.90
3310;DHT22;1667;53.238;10.394;2023-03-01T16:15:21;9.80;99.90
3310;DHT22;1667;53.238;10.394;2023-03-01T16:20:22;9.80;99.90
3310;DHT22;1667;53.238;10.394;2023-03-01T16:25:27;9.50;99.90
3310;DHT22;1667;53.238;10.394;2023-03-01T16:30:27;9.40;99.90
3310;DHT22;1667;53.238;10.394;2023-03-01T16:35:27;9.50;99.90
3310;DHT22;1667;53.238;10.394;2023-03-01T16:40:28;9.50;99.90
3310;DHT22;1667;53.238;10.394;2023-03-01T16:45:27;9.60;99.90
3310;DHT22;1667;53.238;10.394;2023-03-01T16:50:27;9.60;99.90
3310;DHT22;1667;53.238;10.394;2023-03-01T16:55:26;9.60;99.90
3310;DHT22;1667;53.238;10.394;2023-03-01T17:00:25;9.40;99.90
3310;DHT22;1667;53.238;10.394;2023-03-01T17:05:23;9.40;99.90
3310;DHT22;1667;53.238;10.394;2023-03-01T17:10:24;9.40;99.90
3310;DHT22;1667;53.238;10.394;2023-03-01T17:15:22;9.40;99.90
3310;DHT22;1667;53.238;10.394;2023-03-01T17:20:21;9.30;99.90
3310;DHT22;1667;53.238;10.394;2023-03-01T17:25:19;9.00;99.90
3310;DHT22;1667;53.238;10.394;2023-03-01T17:30:20;9.00;99.90
3310;DHT22;1667;53.238;10.394;2023-03-01T17:35:18;8.70;99.90
3310;DHT22;1667;53.238;10.394;2023-03-01T17:40:17;8.50;99.90
3310;DHT22;1667;53.238;10.394;2023-03-01T17:45:15;8.40;99.90
3310;DHT22;1667;53.238;10.394;2023-03-01T17:50:16;8.30;99.90
3310;DHT22;1667;53.238;10.394;2023-03-01T17:55:14;8.40;99.90
3310;DHT22;1667;53.238;10.394;2023-03-01T18:00:14;7.90;99.90
3310;DHT22;1667;53.238;10.394;2023-03-01T18:05:15;7.50;99.90
3310;DHT22;1667;53.238;10.394;2023-03-01T18:10:13;7.40;99.90
3310;DHT22;1667;53.238;10.394;2023-03-01T18:15:12;7.20;99.90
3310;DHT22;1667;53.238;10.394;2023-03-01T18:20:11;7.00;99.90
3310;DHT22;1667;53.238;10.394;2023-03-01T18:25:12;6.80;99.90
3310;DHT22;1667;53.238;10.394;2023-03-01T18:30:12;7.00;99.90
3310;DHT22;1667;53.238;10.394;2023-03-01T18:35:11;7.10;99.90
3310;DHT22;1667;53.238;10.394;2023-03-01T18:40:10;7.10;99.90
3310;DHT22;1667;53.238;10.394;2023-03-01T18:45:11;7.20;99.90
3310;DHT22;1667;53.238;10.394;2023-03-01T18:50:10;7.50;99.90
3310;DHT22;1667;53.238;10.394;2023-03-01T18:55:10;7.50;99.90
3310;DHT22;1667;53.238;10.394;2023-03-01T19:00:11;7.50;99.90
3310;DHT22;1667;53.238;10.394;2023-03-01T19:05:10;7.50;99.90
3310;DHT22;1667;53.238;10.394;2023-03-01T19:10:09;7.60;99.90
3310;DHT22;1667;53.238;10.394;2023-03-01T19:15:08;7.60;99.90
3310;DHT22;1667;53.238;10.394;2023-03-01T19:20:10;7.60;99.90
3310;DHT22;1667;53.238;10.394;2023-03-01T19:25:09;7.50;99.90
3310;DHT22;1667;53.238;10.394;2023-03-01T19:30:09;7.30;99.90
3310;DHT22;1667;53.238;10.394;2023-03-01T19:35:10;7.20;99.90
3310;DHT22;1667;53.238;10.394;2023-03-01T19:40:10;7.10;99.90
3310;DHT22;1667;53.238;10.394;2023-03-01T19:45:09;7.10;99.90
3310;DHT22;1667;53.238;10.394;2023-03-01T19:50:10;6.90;99.90
3310;DHT22;1667;53.238;10.394;2023-03-01T19:55:10;7.10;99.90
3310;DHT22;1667;53.238;10.394;2023-03-01T20:00:09;7.20;99.90
3310;DHT22;1667;53.238;10.394;2023-03-01T20:05:09;7.30;99.90
3310;DHT22;1667;53.238;10.394;2023-03-01T20:10:09;7.10;99.90
3310;DHT22;1667;53.238;10.394;2023-03-01T20:15:09;6.50;99.90
3310;DHT22;1667;53.238;10.394;2023-03-01T20:20:10;6.20;99.90
3310;DHT22;1667;53.238;10.394;2023-03-01T20:25:09;5.90;99.90
3310;DHT22;1667;53.238;10.394;2023-03-01T20:30:09;6.10;99.90
3310;DHT22;1667;53.238;10.394;2023-03-01T20:35:10;6.70;99.90
3310;DHT22;1667;53.238;10.394;2023-03-01T20:40:10;6.90;99.90
3310;DHT22;1667;53.238;10.394;2023-03-01T20:45:09;6.40;99.90
3310;DHT22;1667;53.238;10.394;2023-03-01T20:50:11;6.40;99.90
3310;DHT22;1667;53.238;10.394;2023-03-01T20:55:10;6.00;99.90
3310;DHT22;1667;53.238;10.394;2023-03-01T21:00:09;5.40;99.90
3310;DHT22;1667;53.238;10.394;2023-03-01T21:05:10;5.80;99.90
3310;DHT22;1667;53.238;10.394;2023-03-01T21:10:09;5.90;99.90
3310;DHT22;1667;53.238;10.394;2023-03-01T21:15:09;6.30;99.90
3310;DHT22;1667;53.238;10.394;2023-03-01T21:20:25;6.40;99.90
3310;DHT22;1667;53.238;10.394;2023-03-01T21:25:24;6.70;99.90
3310;DHT22;1667;53.238;10.394;2023-03-01T21:30:30;6.90;99.90
3310;DHT22;1667;53.238;10.394;2023-03-01T21:35:30;6.80;99.90
3310;DHT22;1667;53.238;10.394;2023-03-01T21:40:29;7.10;99.90
3310;DHT22;1667;53.238;10.394;2023-03-01T21:45:28;6.80;99.90
3310;DHT22;1667;53.238;10.394;2023-03-01T21:50:26;6.60;99.90
3310;DHT22;1667;53.238;10.394;2023-03-01T21:55:26;6.70;99.90
3310;DHT22;1667;53.238;10.394;2023-03-01T22:00:25;7.20;99.90
3310;DHT22;1667;53.238;10.394;2023-03-01T22:05:24;7.10;99.90
3310;DHT22;1667;53.238;10.394;2023-03-01T22:10:22;7.20;99.90
3310;DHT22;1667;53.238;10.394;2023-03-01T22:15:25;6.70;99.90
3310;DHT22;1667;53.238;10.394;2023-03-01T22:20:24;6.90;99.90
3310;DHT22;1667;53.238;10.394;2023-03-01T22:25:23;6.90;99.90
3310;DHT22;1667;53.238;10.394;2023-03-01T22:30:23;7.00;99.90
3310;DHT22;1667;53.238;10.394;2023-03-01T22:35:22;6.90;99.90
3310;DHT22;1667;53.238;10.394;2023-03-01T22:40:21;6.70;99.90
3310;DHT22;1667;53.238;10.394;2023-03-01T22:45:19;6.80;99.90
3310;DHT22;1667;53.238;10.394;2023-03-01T22:50:19;6.70;99.90
3310;DHT22;1667;53.238;10.394;2023-03-01T22:55:18;6.30;99.90
3310;DHT22;1667;53.238;10.394;2023-03-01T23:00:17;6.40;99.90
3310;DHT22;1667;53.238;10.394;2023-03-01T23:05:16;6.20;99.90
3310;DHT22;1667;53.238;10.394;2023-03-01T23:10:16;6.00;99.90
3310;DHT22;1667;53.238;10.394;2023-03-01T23:15:15;5.70;99.90
3310;DHT22;1667;53.238;10.394;2023-03-01T23:20:14;5.80;99.90
3310;DHT22;1667;53.238;10.394;2023-03-01T23:25:13;5.90;99.90
3310;DHT22;1667;53.238;10.394;2023-03-01T23:30:13;6.30;99.90
3310;DHT22;1667;53.238;10.394;2023-03-01T23:35:12;6.30;99.90
3310;DHT22;1667;53.238;10.394;2023-03-01T23:40:11;6.60;99.90
3310;DHT22;1667;53.238;10.394;2023-03-01T23:45:10;6.30;99.90
3310;DHT22;1667;53.238;10.394;2023-03-01T23:50:10;6.40;99.90
3310;DHT22;1667;53.238;10.394;2023-03-01T23:55:10;6.30;99.90
